Asau, Samoa

5:08 PM WSDT on October 02, 2014 (GMT +1400)
Faleolo International | Change Station
CLOSE
Current Station
Airport
Location: Faleolo,
Elevation: 16 ft
Nearby Weather Stations

Elev 16 ft 13.83 °S, 172.01 °W | Updated 1 hour ago

Scattered Clouds
Scattered Clouds
90 °F
Feels Like 105 °F
N
20
Wind Variable Wind from NE

Today
High -- | Low -- °F
--% Chance of Precip.
Yesterday
High -- | Low -- °F
Precip. -- in
7:12 AM 7:26 PM
First Quarter, 54% visible
Pressure 29.80 in
Visibility 6.2 miles
Clouds Few 2000 ft
Scattered Clouds 15000 ft
Heat Index 105 °F
Dew Point 79 °F
Humidity 70%
Rainfall 0.00 in
Snow Depth Not available.
UV 6 out of 12
Pollen Not available.
Air Quality Not available.
Flu Activity Not available.
METAR NSFA 020200Z 05017KT 9999 FEW020 SCT150 32/26 Q1009

More Conditions Fewer Conditions

Pressure 29.80 in
Visibility 6.2 miles
Clouds Few 2000 ft
Scattered Clouds 15000 ft
Heat Index 105 °F
Dew Point 79 °F
Humidity 70%
Rainfall 0.00 in
Snow Depth Not available.
UV 6 out of 12
Pollen Not available.
Air Quality Not available.
Flu Activity Not available.
METAR NSFA 020200Z 05017KT 9999 FEW020 SCT150 32/26 Q1009

More Conditions Fewer Conditions

10-Day Weather Forecast

Almanac

Astronomy

Oct. 02, 2014 Rise Set
Actual Time 7:12 AM WSDT 7:26 PM WSDT
Civil Twilight 6:51 AM WSDT 7:48 PM WSDT
Nautical Twilight 6:26 AM WSDT 8:13 PM WSDT
Astronomical Twilight 6:01 AM WSDT 8:37 PM WSDT
Moon 1:16 PM WSDT 1:24 AM WSDT
Length of Visible Light 12h 56m
Length of Day
12h 14m
Tomorrow will be 0m 44s longer.
First Quarter, 54% of the Moon is Illuminated
Oct 1
First Quarter
Oct 8
Full
Oct 15
Last Quarter
Oct 23
New
Oct 30
First Quarter

Yesterday's Extremes

Country Highs Country Lows

Community

WunderPhotos

Upload Photos

1,758,157 photos uploaded!

WunderBlogs® & News

Nearby

Snow Depth

Not available.

Earthquake Activity

City Distance Mag. Time & Date
No recent earthquake activity has been reported nearby.
Minimum magnitude displayed is 2.5.

Coastal Water Temperatures

Place Temperature
No Stations Reporting

Nearby Weather Stations